sensor_id;sensor_type;location;lat;lon;timestamp;pressure;altitude;pressure_sealevel;temperature;humidity
29941;BME280;16801;53.562;10.038;2022-10-16T00:00:08;100888.31;;;14.68;85.36
29941;BME280;16801;53.562;10.038;2022-10-16T00:03:29;100881.53;;;14.64;85.49
29941;BME280;16801;53.562;10.038;2022-10-16T00:06:50;100891.13;;;14.58;85.14
29941;BME280;16801;53.562;10.038;2022-10-16T00:10:11;100895.78;;;14.66;84.15
29941;BME280;16801;53.562;10.038;2022-10-16T00:13:35;100896.63;;;14.66;83.84
29941;BME280;16801;53.562;10.038;2022-10-16T00:16:56;100893.53;;;14.61;83.46
29941;BME280;16801;53.562;10.038;2022-10-16T00:20:17;100901.72;;;14.69;82.25
29941;BME280;16801;53.562;10.038;2022-10-16T00:23:38;100897.47;;;14.67;81.92
29941;BME280;16801;53.562;10.038;2022-10-16T00:26:59;100896.63;;;14.66;81.45
29941;BME280;16801;53.562;10.038;2022-10-16T00:30:21;100903.75;;;14.67;81.34
29941;BME280;16801;53.562;10.038;2022-10-16T00:33:43;100901.03;;;14.67;80.78
29941;BME280;16801;53.562;10.038;2022-10-16T00:37:03;100895.13;;;14.72;80.06
29941;BME280;16801;53.562;10.038;2022-10-16T00:40:24;100908.16;;;14.68;79.80
29941;BME280;16801;53.562;10.038;2022-10-16T00:43:47;100907.84;;;14.71;78.98
29941;BME280;16801;53.562;10.038;2022-10-16T00:47:11;100920.53;;;14.71;78.44
29941;BME280;16801;53.562;10.038;2022-10-16T00:50:34;100918.69;;;14.71;78.67
29941;BME280;16801;53.562;10.038;2022-10-16T00:53:55;100919.53;;;14.72;77.96
29941;BME280;16801;53.562;10.038;2022-10-16T00:57:17;100918.03;;;14.77;76.82
29941;BME280;16801;53.562;10.038;2022-10-16T01:00:38;100914.84;;;14.82;75.82
29941;BME280;16801;53.562;10.038;2022-10-16T01:04:00;100906.38;;;14.85;75.54
29941;BME280;16801;53.562;10.038;2022-10-16T01:07:30;100920.44;;;14.80;75.50
29941;BME280;16801;53.562;10.038;2022-10-16T01:10:57;100925.34;;;14.77;76.12
29941;BME280;16801;53.562;10.038;2022-10-16T01:14:26;100924.59;;;14.67;76.53
29941;BME280;16801;53.562;10.038;2022-10-16T01:17:53;100935.13;;;14.70;77.25
29941;BME280;16801;53.562;10.038;2022-10-16T01:21:22;100933.56;;;14.59;77.83
29941;BME280;16801;53.562;10.038;2022-10-16T01:24:46;100938.25;;;14.49;78.57
29941;BME280;16801;53.562;10.038;2022-10-16T01:28:11;100935.16;;;14.44;79.18
29941;BME280;16801;53.562;10.038;2022-10-16T01:31:37;100937.72;;;14.46;79.09
29941;BME280;16801;53.562;10.038;2022-10-16T01:35:02;100946.81;;;14.36;78.73
29941;BME280;16801;53.562;10.038;2022-10-16T01:38:29;100936.13;;;14.35;78.80
29941;BME280;16801;53.562;10.038;2022-10-16T01:42:04;100931.00;;;14.32;78.62
29941;BME280;16801;53.562;10.038;2022-10-16T01:45:30;100945.09;;;14.35;77.86
29941;BME280;16801;53.562;10.038;2022-10-16T01:48:52;100941.53;;;14.35;78.05
29941;BME280;16801;53.562;10.038;2022-10-16T01:52:17;100946.09;;;14.34;77.93
29941;BME280;16801;53.562;10.038;2022-10-16T01:55:45;100932.84;;;14.31;78.04
29941;BME280;16801;53.562;10.038;2022-10-16T01:59:11;100931.84;;;14.32;77.84
29941;BME280;16801;53.562;10.038;2022-10-16T02:02:34;100938.72;;;14.27;78.11
29941;BME280;16801;53.562;10.038;2022-10-16T02:05:57;100929.69;;;14.18;78.96
29941;BME280;16801;53.562;10.038;2022-10-16T02:09:19;100941.69;;;14.16;79.43
29941;BME280;16801;53.562;10.038;2022-10-16T02:12:43;100944.88;;;14.11;79.84
29941;BME280;16801;53.562;10.038;2022-10-16T02:16:07;100946.19;;;14.07;79.60
29941;BME280;16801;53.562;10.038;2022-10-16T02:19:29;100945.34;;;14.07;80.07
29941;BME280;16801;53.562;10.038;2022-10-16T02:22:50;100943.56;;;13.98;80.34
29941;BME280;16801;53.562;10.038;2022-10-16T02:26:15;100953.25;;;14.00;80.01
29941;BME280;16801;53.562;10.038;2022-10-16T02:29:42;100945.91;;;13.93;80.11
29941;BME280;16801;53.562;10.038;2022-10-16T02:33:07;100949.94;;;13.89;80.34
29941;BME280;16801;53.562;10.038;2022-10-16T02:36:31;100953.41;;;13.81;80.54
29941;BME280;16801;53.562;10.038;2022-10-16T02:39:53;100961.47;;;13.73;80.72
29941;BME280;16801;53.562;10.038;2022-10-16T02:43:15;100947.22;;;13.71;81.23
29941;BME280;16801;53.562;10.038;2022-10-16T02:46:36;100939.41;;;13.68;81.16
29941;BME280;16801;53.562;10.038;2022-10-16T02:49:57;100947.53;;;13.68;81.23
29941;BME280;16801;53.562;10.038;2022-10-16T02:53:19;100952.41;;;13.64;80.81
29941;BME280;16801;53.562;10.038;2022-10-16T02:56:40;100950.00;;;13.61;81.16
29941;BME280;16801;53.562;10.038;2022-10-16T03:00:01;100954.56;;;13.61;81.09
29941;BME280;16801;53.562;10.038;2022-10-16T03:03:22;100954.16;;;13.56;81.24
29941;BME280;16801;53.562;10.038;2022-10-16T03:06:43;100956.34;;;13.52;81.34
29941;BME280;16801;53.562;10.038;2022-10-16T03:10:07;100954.09;;;13.48;81.54
29941;BME280;16801;53.562;10.038;2022-10-16T03:13:28;100945.59;;;13.43;81.74
29941;BME280;16801;53.562;10.038;2022-10-16T03:16:49;100941.16;;;13.42;81.69
29941;BME280;16801;53.562;10.038;2022-10-16T03:20:10;100931.47;;;13.39;81.72
29941;BME280;16801;53.562;10.038;2022-10-16T03:23:31;100937.50;;;13.33;81.93
29941;BME280;16801;53.562;10.038;2022-10-16T03:26:53;100955.22;;;13.28;82.24
29941;BME280;16801;53.562;10.038;2022-10-16T03:30:14;100947.97;;;13.28;82.18
29941;BME280;16801;53.562;10.038;2022-10-16T03:33:35;100953.66;;;13.25;82.17
29941;BME280;16801;53.562;10.038;2022-10-16T03:36:56;100951.72;;;13.18;82.46
29941;BME280;16801;53.562;10.038;2022-10-16T03:40:17;100952.72;;;13.17;82.40
29941;BME280;16801;53.562;10.038;2022-10-16T03:43:39;100961.28;;;13.12;82.56
29941;BME280;16801;53.562;10.038;2022-10-16T03:47:00;100965.44;;;13.07;82.88
29941;BME280;16801;53.562;10.038;2022-10-16T03:50:21;100963.16;;;13.12;82.63
29941;BME280;16801;53.562;10.038;2022-10-16T03:53:42;100968.00;;;13.08;82.62
29941;BME280;16801;53.562;10.038;2022-10-16T03:57:03;100963.88;;;13.04;82.60
29941;BME280;16801;53.562;10.038;2022-10-16T04:00:25;100966.31;;;13.07;83.09
29941;BME280;16801;53.562;10.038;2022-10-16T04:03:46;100965.59;;;13.05;82.69
29941;BME280;16801;53.562;10.038;2022-10-16T04:07:06;100973.84;;;13.04;82.59
29941;BME280;16801;53.562;10.038;2022-10-16T04:10:27;100979.56;;;13.01;82.84
29941;BME280;16801;53.562;10.038;2022-10-16T04:13:48;100986.81;;;13.00;82.86
29941;BME280;16801;53.562;10.038;2022-10-16T04:17:10;100988.13;;;13.06;82.57
29941;BME280;16801;53.562;10.038;2022-10-16T04:20:31;100989.34;;;13.02;82.96
29941;BME280;16801;53.562;10.038;2022-10-16T04:23:51;100997.78;;;13.08;82.50
29941;BME280;16801;53.562;10.038;2022-10-16T04:27:12;101002.34;;;13.08;82.51
29941;BME280;16801;53.562;10.038;2022-10-16T04:30:34;100999.19;;;13.03;82.64
29941;BME280;16801;53.562;10.038;2022-10-16T04:33:56;101000.91;;;13.04;82.20
29941;BME280;16801;53.562;10.038;2022-10-16T04:37:17;100992.91;;;13.02;82.47
29941;BME280;16801;53.562;10.038;2022-10-16T04:40:37;101003.19;;;13.08;82.33
29941;BME280;16801;53.562;10.038;2022-10-16T04:43:58;101010.75;;;13.05;81.96
29941;BME280;16801;53.562;10.038;2022-10-16T04:47:19;101010.03;;;13.03;82.20
29941;BME280;16801;53.562;10.038;2022-10-16T04:50:42;101019.28;;;13.00;82.45
29941;BME280;16801;53.562;10.038;2022-10-16T04:54:03;101026.41;;;13.01;82.32
29941;BME280;16801;53.562;10.038;2022-10-16T04:57:23;101018.28;;;13.01;82.74
29941;BME280;16801;53.562;10.038;2022-10-16T05:00:45;101016.56;;;13.00;82.38
29941;BME280;16801;53.562;10.038;2022-10-16T05:04:06;101013.59;;;13.03;82.51
29941;BME280;16801;53.562;10.038;2022-10-16T05:07:28;101028.25;;;13.01;82.75
29941;BME280;16801;53.562;10.038;2022-10-16T05:10:49;101028.53;;;12.98;83.11
29941;BME280;16801;53.562;10.038;2022-10-16T05:14:10;101033.97;;;12.98;82.95
29941;BME280;16801;53.562;10.038;2022-10-16T05:17:31;101039.09;;;13.01;82.97
29941;BME280;16801;53.562;10.038;2022-10-16T05:20:52;101048.91;;;13.02;83.16
29941;BME280;16801;53.562;10.038;2022-10-16T05:24:15;101051.91;;;12.99;83.51
29941;BME280;16801;53.562;10.038;2022-10-16T05:27:36;101053.31;;;13.03;83.06
29941;BME280;16801;53.562;10.038;2022-10-16T05:30:57;101047.06;;;13.02;83.50
29941;BME280;16801;53.562;10.038;2022-10-16T05:34:18;101050.38;;;13.06;82.87
29941;BME280;16801;53.562;10.038;2022-10-16T05:37:39;101059.19;;;13.08;82.96
29941;BME280;16801;53.562;10.038;2022-10-16T05:41:02;101063.59;;;13.09;83.15
29941;BME280;16801;53.562;10.038;2022-10-16T05:44:23;101063.00;;;13.15;82.57
29941;BME280;16801;53.562;10.038;2022-10-16T05:47:44;101056.72;;;13.14;82.78
29941;BME280;16801;53.562;10.038;2022-10-16T05:51:07;101050.47;;;13.14;82.92
29941;BME280;16801;53.562;10.038;2022-10-16T05:54:28;101045.06;;;13.14;82.88
29941;BME280;16801;53.562;10.038;2022-10-16T05:57:50;101056.00;;;13.12;82.94
29941;BME280;16801;53.562;10.038;2022-10-16T06:01:12;101061.00;;;13.17;82.81
29941;BME280;16801;53.562;10.038;2022-10-16T06:04:33;101061.41;;;13.22;82.93
29941;BME280;16801;53.562;10.038;2022-10-16T06:07:54;101070.78;;;13.27;82.57
29941;BME280;16801;53.562;10.038;2022-10-16T06:11:17;101067.38;;;13.25;82.78
29941;BME280;16801;53.562;10.038;2022-10-16T06:14:40;101070.25;;;13.14;83.52
29941;BME280;16801;53.562;10.038;2022-10-16T06:18:01;101072.25;;;13.12;83.97
29941;BME280;16801;53.562;10.038;2022-10-16T06:21:23;101076.13;;;13.10;84.13
29941;BME280;16801;53.562;10.038;2022-10-16T06:24:45;101073.13;;;13.03;84.12
29941;BME280;16801;53.562;10.038;2022-10-16T06:28:07;101078.41;;;13.05;84.27
29941;BME280;16801;53.562;10.038;2022-10-16T06:31:29;101089.25;;;13.05;84.49
29941;BME280;16801;53.562;10.038;2022-10-16T06:34:52;101091.81;;;12.97;84.97
29941;BME280;16801;53.562;10.038;2022-10-16T06:38:13;101096.34;;;12.96;85.50
29941;BME280;16801;53.562;10.038;2022-10-16T06:41:34;101096.19;;;12.98;84.92
29941;BME280;16801;53.562;10.038;2022-10-16T06:45:09;101092.19;;;13.02;85.22
29941;BME280;16801;53.562;10.038;2022-10-16T06:48:31;101082.22;;;13.02;85.29
29941;BME280;16801;53.562;10.038;2022-10-16T06:51:52;101103.31;;;13.08;85.45
29941;BME280;16801;53.562;10.038;2022-10-16T06:55:12;101111.88;;;13.13;85.42
29941;BME280;16801;53.562;10.038;2022-10-16T06:58:34;101121.69;;;13.24;85.25
29941;BME280;16801;53.562;10.038;2022-10-16T07:01:55;101112.81;;;13.31;85.14
29941;BME280;16801;53.562;10.038;2022-10-16T07:05:17;101127.03;;;13.43;84.56
29941;BME280;16801;53.562;10.038;2022-10-16T07:08:39;101131.09;;;13.56;84.54
29941;BME280;16801;53.562;10.038;2022-10-16T07:12:01;101139.91;;;13.68;84.00
29941;BME280;16801;53.562;10.038;2022-10-16T07:15:22;101138.59;;;13.99;83.80
29941;BME280;16801;53.562;10.038;2022-10-16T07:18:44;101140.59;;;13.97;83.20
29941;BME280;16801;53.562;10.038;2022-10-16T07:22:06;101140.69;;;14.05;83.11
29941;BME280;16801;53.562;10.038;2022-10-16T07:25:27;101143.75;;;14.20;82.97
29941;BME280;16801;53.562;10.038;2022-10-16T07:28:48;101146.69;;;14.54;82.69
29941;BME280;16801;53.562;10.038;2022-10-16T07:32:09;101153.78;;;14.55;81.50
29941;BME280;16801;53.562;10.038;2022-10-16T07:35:30;101147.19;;;14.92;81.88
29941;BME280;16801;53.562;10.038;2022-10-16T07:38:52;101153.34;;;15.20;79.58
29941;BME280;16801;53.562;10.038;2022-10-16T07:42:13;101175.81;;;14.87;79.74
29941;BME280;16801;53.562;10.038;2022-10-16T07:45:34;101175.09;;;15.02;79.29
29941;BME280;16801;53.562;10.038;2022-10-16T07:48:55;101173.00;;;14.96;79.45
29941;BME280;16801;53.562;10.038;2022-10-16T07:52:16;101175.31;;;15.09;78.84
29941;BME280;16801;53.562;10.038;2022-10-16T07:55:39;101181.97;;;15.14;78.70
29941;BME280;16801;53.562;10.038;2022-10-16T07:59:00;101186.34;;;15.07;79.29
29941;BME280;16801;53.562;10.038;2022-10-16T08:02:20;101187.09;;;15.17;78.87
29941;BME280;16801;53.562;10.038;2022-10-16T08:05:41;101186.09;;;15.18;79.01
29941;BME280;16801;53.562;10.038;2022-10-16T08:09:03;101180.97;;;15.15;78.92
29941;BME280;16801;53.562;10.038;2022-10-16T08:12:25;101187.16;;;15.26;78.82
29941;BME280;16801;53.562;10.038;2022-10-16T08:15:47;101190.03;;;15.06;79.20
29941;BME280;16801;53.562;10.038;2022-10-16T08:19:07;101208.06;;;15.07;79.19
29941;BME280;16801;53.562;10.038;2022-10-16T08:22:28;101210.66;;;15.17;78.34
29941;BME280;16801;53.562;10.038;2022-10-16T08:25:49;101212.53;;;15.16;78.22
29941;BME280;16801;53.562;10.038;2022-10-16T08:29:13;101197.53;;;15.48;76.96
29941;BME280;16801;53.562;10.038;2022-10-16T08:32:34;101205.25;;;15.60;76.62
29941;BME280;16801;53.562;10.038;2022-10-16T08:35:55;101211.13;;;15.81;75.73
29941;BME280;16801;53.562;10.038;2022-10-16T08:39:16;101209.41;;;16.06;74.53
29941;BME280;16801;53.562;10.038;2022-10-16T08:42:47;101211.56;;;15.94;75.06
29941;BME280;16801;53.562;10.038;2022-10-16T08:46:24;101206.50;;;15.99;74.89
29941;BME280;16801;53.562;10.038;2022-10-16T08:49:56;101205.66;;;16.49;73.65
29941;BME280;16801;53.562;10.038;2022-10-16T08:53:21;101214.22;;;16.20;73.74
29941;BME280;16801;53.562;10.038;2022-10-16T08:56:44;101225.59;;;16.16;73.97
29941;BME280;16801;53.562;10.038;2022-10-16T09:00:12;101225.13;;;16.20;74.03
29941;BME280;16801;53.562;10.038;2022-10-16T09:07:29;101232.09;;;16.64;72.87
29941;BME280;16801;53.562;10.038;2022-10-16T09:10:57;101238.09;;;16.92;71.48
29941;BME280;16801;53.562;10.038;2022-10-16T09:14:34;101249.84;;;17.17;70.49
29941;BME280;16801;53.562;10.038;2022-10-16T09:18:01;101235.41;;;17.08;70.63
29941;BME280;16801;53.562;10.038;2022-10-16T09:21:30;101248.34;;;17.06;70.48
29941;BME280;16801;53.562;10.038;2022-10-16T09:24:51;101243.88;;;18.32;66.34
29941;BME280;16801;53.562;10.038;2022-10-16T09:28:12;101240.75;;;20.31;59.05
29941;BME280;16801;53.562;10.038;2022-10-16T09:31:36;101246.16;;;22.08;54.35
29941;BME280;16801;53.562;10.038;2022-10-16T09:34:57;101252.03;;;21.08;54.73
29941;BME280;16801;53.562;10.038;2022-10-16T09:38:24;101256.03;;;22.78;50.10
29941;BME280;16801;53.562;10.038;2022-10-16T09:41:45;101266.09;;;20.84;55.13
29941;BME280;16801;53.562;10.038;2022-10-16T09:45:20;101258.75;;;19.97;56.57
29941;BME280;16801;53.562;10.038;2022-10-16T09:48:44;101251.47;;;21.61;52.39
29941;BME280;16801;53.562;10.038;2022-10-16T09:52:12;101256.75;;;21.84;51.29
29941;BME280;16801;53.562;10.038;2022-10-16T09:55:34;101262.94;;;23.28;48.30
29941;BME280;16801;53.562;10.038;2022-10-16T09:58:56;101276.81;;;22.46;48.58
29941;BME280;16801;53.562;10.038;2022-10-16T10:02:20;101290.91;;;20.82;54.04
29941;BME280;16801;53.562;10.038;2022-10-16T10:05:47;101317.03;;;21.49;52.31
29941;BME280;16801;53.562;10.038;2022-10-16T10:09:19;101292.69;;;22.98;48.84
29941;BME280;16801;53.562;10.038;2022-10-16T10:16:02;101314.31;;;22.60;48.54
29941;BME280;16801;53.562;10.038;2022-10-16T10:19:23;101300.44;;;23.42;45.91
29941;BME280;16801;53.562;10.038;2022-10-16T10:22:45;101308.22;;;24.56;44.02
29941;BME280;16801;53.562;10.038;2022-10-16T10:26:08;101291.56;;;24.31;45.17
29941;BME280;16801;53.562;10.038;2022-10-16T10:29:46;101295.03;;;27.47;39.16
29941;BME280;16801;53.562;10.038;2022-10-16T10:33:20;101296.47;;;26.72;39.64
29941;BME280;16801;53.562;10.038;2022-10-16T10:36:50;101293.47;;;28.39;36.15
29941;BME280;16801;53.562;10.038;2022-10-16T10:40:26;101314.88;;;26.24;39.90
29941;BME280;16801;53.562;10.038;2022-10-16T10:43:57;101323.31;;;26.04;39.91
29941;BME280;16801;53.562;10.038;2022-10-16T10:47:29;101302.28;;;25.10;42.32
29941;BME280;16801;53.562;10.038;2022-10-16T10:50:55;101306.16;;;23.34;45.94
29941;BME280;16801;53.562;10.038;2022-10-16T10:54:22;101310.50;;;24.79;43.57
29941;BME280;16801;53.562;10.038;2022-10-16T10:58:12;101309.22;;;24.88;41.75
29941;BME280;16801;53.562;10.038;2022-10-16T11:01:40;101314.22;;;21.43;49.46
29941;BME280;16801;53.562;10.038;2022-10-16T11:05:23;101315.19;;;22.33;46.27
29941;BME280;16801;53.562;10.038;2022-10-16T11:08:50;101303.72;;;25.25;40.59
29941;BME280;16801;53.562;10.038;2022-10-16T11:12:17;101309.03;;;23.13;43.88
29941;BME280;16801;53.562;10.038;2022-10-16T11:15:41;101310.81;;;24.51;41.93
29941;BME280;16801;53.562;10.038;2022-10-16T11:19:11;101313.47;;;24.71;40.54
29941;BME280;16801;53.562;10.038;2022-10-16T11:22:39;101338.22;;;24.20;41.23
29941;BME280;16801;53.562;10.038;2022-10-16T11:26:08;101330.47;;;24.68;39.75
29941;BME280;16801;53.562;10.038;2022-10-16T11:29:34;101342.25;;;24.17;41.22
29941;BME280;16801;53.562;10.038;2022-10-16T11:33:04;101355.84;;;20.96;49.90
29941;BME280;16801;53.562;10.038;2022-10-16T11:36:33;101383.81;;;21.57;46.25
29941;BME280;16801;53.562;10.038;2022-10-16T11:40:03;101354.13;;;22.09;45.97
29941;BME280;16801;53.562;10.038;2022-10-16T11:43:28;101363.41;;;20.94;49.25
29941;BME280;16801;53.562;10.038;2022-10-16T11:46:58;101354.75;;;23.07;44.60
29941;BME280;16801;53.562;10.038;2022-10-16T11:50:25;101359.94;;;23.36;44.01
29941;BME280;16801;53.562;10.038;2022-10-16T11:53:52;101371.31;;;20.16;52.49
29941;BME280;16801;53.562;10.038;2022-10-16T11:57:19;101363.84;;;20.10;52.59
29941;BME280;16801;53.562;10.038;2022-10-16T12:00:45;101370.94;;;20.19;53.17
29941;BME280;16801;53.562;10.038;2022-10-16T12:04:18;101368.13;;;19.67;53.46
29941;BME280;16801;53.562;10.038;2022-10-16T12:07:48;101401.28;;;19.19;54.51
29941;BME280;16801;53.562;10.038;2022-10-16T12:11:24;101394.03;;;19.34;54.60
29941;BME280;16801;53.562;10.038;2022-10-16T12:15:01;101386.69;;;23.08;43.83
29941;BME280;16801;53.562;10.038;2022-10-16T12:18:24;101393.19;;;21.47;46.89
29941;BME280;16801;53.562;10.038;2022-10-16T12:21:45;101388.03;;;24.31;41.34
29941;BME280;16801;53.562;10.038;2022-10-16T12:25:20;101396.47;;;24.63;41.29
29941;BME280;16801;53.562;10.038;2022-10-16T12:28:41;101403.25;;;23.21;43.38
29941;BME280;16801;53.562;10.038;2022-10-16T12:32:06;101405.72;;;21.71;47.45
29941;BME280;16801;53.562;10.038;2022-10-16T12:35:43;101429.88;;;20.52;49.68
29941;BME280;16801;53.562;10.038;2022-10-16T12:39:05;101422.22;;;20.03;51.03
29941;BME280;16801;53.562;10.038;2022-10-16T12:42:34;101418.03;;;19.77;50.08
29941;BME280;16801;53.562;10.038;2022-10-16T12:46:03;101422.44;;;20.38;48.36
29941;BME280;16801;53.562;10.038;2022-10-16T12:49:34;101429.94;;;20.59;48.38
29941;BME280;16801;53.562;10.038;2022-10-16T12:52:56;101445.63;;;20.36;48.67
29941;BME280;16801;53.562;10.038;2022-10-16T12:56:24;101441.41;;;19.80;49.60
29941;BME280;16801;53.562;10.038;2022-10-16T12:59:52;101462.19;;;18.89;51.64
29941;BME280;16801;53.562;10.038;2022-10-16T13:03:35;101475.44;;;19.85;48.97
29941;BME280;16801;53.562;10.038;2022-10-16T13:07:17;101459.50;;;19.36;50.59
29941;BME280;16801;53.562;10.038;2022-10-16T13:10:45;101461.69;;;18.93;52.12
29941;BME280;16801;53.562;10.038;2022-10-16T13:14:26;101459.72;;;20.02;49.64
29941;BME280;16801;53.562;10.038;2022-10-16T13:17:59;101475.44;;;19.55;50.27
29941;BME280;16801;53.562;10.038;2022-10-16T13:21:36;101466.28;;;19.93;48.44
29941;BME280;16801;53.562;10.038;2022-10-16T13:25:13;101475.28;;;19.79;49.94
29941;BME280;16801;53.562;10.038;2022-10-16T13:28:38;101479.97;;;19.93;50.26
29941;BME280;16801;53.562;10.038;2022-10-16T13:32:00;101485.13;;;19.88;50.86
29941;BME280;16801;53.562;10.038;2022-10-16T13:35:28;101498.22;;;19.78;49.83
29941;BME280;16801;53.562;10.038;2022-10-16T13:39:00;101499.28;;;19.38;51.05
29941;BME280;16801;53.562;10.038;2022-10-16T13:42:27;101503.69;;;19.78;50.75
29941;BME280;16801;53.562;10.038;2022-10-16T13:45:56;101502.19;;;19.98;49.62
29941;BME280;16801;53.562;10.038;2022-10-16T13:49:18;101506.09;;;19.50;49.70
29941;BME280;16801;53.562;10.038;2022-10-16T13:52:39;101512.66;;;19.17;50.59
29941;BME280;16801;53.562;10.038;2022-10-16T13:56:03;101511.84;;;19.00;51.04
29941;BME280;16801;53.562;10.038;2022-10-16T13:59:27;101509.13;;;19.00;50.97
29941;BME280;16801;53.562;10.038;2022-10-16T14:02:57;101525.94;;;19.75;49.34
29941;BME280;16801;53.562;10.038;2022-10-16T14:06:21;101520.28;;;21.98;43.85
29941;BME280;16801;53.562;10.038;2022-10-16T14:09:47;101538.63;;;19.99;47.63
29941;BME280;16801;53.562;10.038;2022-10-16T14:13:15;101519.31;;;22.48;42.70
29941;BME280;16801;53.562;10.038;2022-10-16T14:16:41;101534.50;;;22.44;41.69
29941;BME280;16801;53.562;10.038;2022-10-16T14:20:05;101538.78;;;22.74;41.86
29941;BME280;16801;53.562;10.038;2022-10-16T14:23:29;101541.94;;;21.43;45.25
29941;BME280;16801;53.562;10.038;2022-10-16T14:26:50;101546.72;;;21.70;44.22
29941;BME280;16801;53.562;10.038;2022-10-16T14:30:14;101549.19;;;20.32;48.25
29941;BME280;16801;53.562;10.038;2022-10-16T14:33:37;101565.03;;;21.48;45.08
29941;BME280;16801;53.562;10.038;2022-10-16T14:36:59;101586.78;;;21.06;46.02
29941;BME280;16801;53.562;10.038;2022-10-16T14:40:23;101578.09;;;20.95;45.83
29941;BME280;16801;53.562;10.038;2022-10-16T14:43:44;101577.47;;;21.80;44.58
29941;BME280;16801;53.562;10.038;2022-10-16T14:47:08;101566.34;;;21.53;45.66
29941;BME280;16801;53.562;10.038;2022-10-16T14:50:31;101576.88;;;20.60;46.63
29941;BME280;16801;53.562;10.038;2022-10-16T14:53:51;101588.75;;;20.30;48.16
29941;BME280;16801;53.562;10.038;2022-10-16T14:57:16;101579.34;;;19.71;49.34
29941;BME280;16801;53.562;10.038;2022-10-16T15:00:38;101583.66;;;19.57;49.99
29941;BME280;16801;53.562;10.038;2022-10-16T15:03:59;101598.81;;;19.05;51.16
29941;BME280;16801;53.562;10.038;2022-10-16T15:07:21;101599.00;;;18.71;52.55
29941;BME280;16801;53.562;10.038;2022-10-16T15:10:43;101601.19;;;18.35;53.70
29941;BME280;16801;53.562;10.038;2022-10-16T15:14:05;101601.69;;;18.31;54.24
29941;BME280;16801;53.562;10.038;2022-10-16T15:17:26;101609.19;;;18.21;54.52
29941;BME280;16801;53.562;10.038;2022-10-16T15:20:48;101615.28;;;18.07;54.94
29941;BME280;16801;53.562;10.038;2022-10-16T15:24:12;101602.63;;;17.90;55.36
29941;BME280;16801;53.562;10.038;2022-10-16T15:27:33;101612.50;;;17.91;55.10
29941;BME280;16801;53.562;10.038;2022-10-16T15:30:59;101616.59;;;17.95;55.35
29941;BME280;16801;53.562;10.038;2022-10-16T15:34:20;101614.53;;;17.89;55.42
29941;BME280;16801;53.562;10.038;2022-10-16T15:37:41;101615.56;;;17.88;54.93
29941;BME280;16801;53.562;10.038;2022-10-16T15:41:03;101625.84;;;17.60;55.74
29941;BME280;16801;53.562;10.038;2022-10-16T15:44:24;101635.94;;;17.68;55.59
29941;BME280;16801;53.562;10.038;2022-10-16T15:47:49;101645.75;;;17.52;56.00
29941;BME280;16801;53.562;10.038;2022-10-16T15:51:10;101648.47;;;17.52;56.45
29941;BME280;16801;53.562;10.038;2022-10-16T15:54:31;101640.91;;;17.46;56.37
29941;BME280;16801;53.562;10.038;2022-10-16T15:57:53;101640.22;;;17.44;56.75
29941;BME280;16801;53.562;10.038;2022-10-16T16:01:14;101660.28;;;17.35;56.37
29941;BME280;16801;53.562;10.038;2022-10-16T16:04:36;101663.75;;;17.20;56.88
29941;BME280;16801;53.562;10.038;2022-10-16T16:07:57;101661.41;;;17.25;56.92
29941;BME280;16801;53.562;10.038;2022-10-16T16:11:19;101666.28;;;17.21;56.95
29941;BME280;16801;53.562;10.038;2022-10-16T16:14:43;101664.69;;;17.11;57.88
29941;BME280;16801;53.562;10.038;2022-10-16T16:18:05;101664.75;;;17.70;58.32
29941;BME280;16801;53.562;10.038;2022-10-16T16:21:28;101665.53;;;17.88;58.44
29941;BME280;16801;53.562;10.038;2022-10-16T16:24:49;101675.94;;;17.93;59.63
29941;BME280;16801;53.562;10.038;2022-10-16T16:28:10;101683.75;;;17.88;57.65
29941;BME280;16801;53.562;10.038;2022-10-16T16:31:35;101684.63;;;17.88;56.23
29941;BME280;16801;53.562;10.038;2022-10-16T16:34:56;101698.44;;;17.61;58.23
29941;BME280;16801;53.562;10.038;2022-10-16T16:38:16;101707.66;;;17.60;56.48
29941;BME280;16801;53.562;10.038;2022-10-16T16:41:37;101709.00;;;17.38;57.18
29941;BME280;16801;53.562;10.038;2022-10-16T16:44:58;101718.13;;;17.29;57.61
29941;BME280;16801;53.562;10.038;2022-10-16T16:48:21;101716.97;;;17.32;57.33
29941;BME280;16801;53.562;10.038;2022-10-16T16:51:42;101724.69;;;17.36;57.69
29941;BME280;16801;53.562;10.038;2022-10-16T16:55:03;101735.13;;;17.23;58.92
29941;BME280;16801;53.562;10.038;2022-10-16T16:58:24;101747.34;;;17.19;58.48
29941;BME280;16801;53.562;10.038;2022-10-16T17:01:45;101747.91;;;17.05;58.25
29941;BME280;16801;53.562;10.038;2022-10-16T17:05:08;101754.25;;;16.70;59.49
29941;BME280;16801;53.562;10.038;2022-10-16T17:08:29;101763.63;;;16.76;60.48
29941;BME280;16801;53.562;10.038;2022-10-16T17:11:50;101771.47;;;16.61;60.20
29941;BME280;16801;53.562;10.038;2022-10-16T17:15:11;101772.81;;;16.57;61.18
29941;BME280;16801;53.562;10.038;2022-10-16T17:18:33;101771.69;;;16.50;61.55
29941;BME280;16801;53.562;10.038;2022-10-16T17:21:55;101769.22;;;16.57;61.84
29941;BME280;16801;53.562;10.038;2022-10-16T17:25:16;101776.91;;;16.34;62.95
29941;BME280;16801;53.562;10.038;2022-10-16T17:28:37;101778.63;;;16.35;62.67
29941;BME280;16801;53.562;10.038;2022-10-16T17:31:58;101796.31;;;16.22;62.75
29941;BME280;16801;53.562;10.038;2022-10-16T17:35:19;101794.25;;;16.06;62.99
29941;BME280;16801;53.562;10.038;2022-10-16T17:38:41;101800.41;;;15.98;63.90